Time;durP1;ratioP1;P1;durP2;ratioP2;P2;SDS_P1;SDS_P2;PMS_P1;PMS_P2;Temp;Humidity;BMP_temperature;BMP_pressure;BME280_temperature;BME280_humidity;BME280_pressure;Samples;Min_cycle;Max_cycle;Signal;HPM_P1;HPM_P2
2023/07/29 00:00:29;;;;;;;14.52;9.05;;;22.60;89.90;;;;;;4958812;28;20048;-77
2023/07/29 00:03:02;;;;;;;11.75;5.97;;;22.90;89.50;;;;;;4924747;28;20063;-78
2023/07/29 00:05:30;;;;;;;14.10;6.63;;;22.90;89.10;;;;;;4945153;29;20048;-79
2023/07/29 00:07:58;;;;;;;13.80;5.70;;;23.00;88.40;;;;;;4952049;28;20103;-76
2023/07/29 00:10:32;;;;;;;7.93;5.03;;;22.90;88.70;;;;;;4961552;28;20126;-78
2023/07/29 00:13:00;;;;;;;14.40;5.18;;;22.90;89.20;;;;;;4912739;29;20062;-81
2023/07/29 00:15:27;;;;;;;12.75;4.90;;;23.00;89.60;;;;;;4958027;28;20138;-82
2023/07/29 00:17:55;;;;;;;11.30;5.20;;;22.80;90.10;;;;;;4957614;28;20057;-79
2023/07/29 00:20:23;;;;;;;10.52;4.90;;;22.70;90.70;;;;;;4944410;28;20396;-79
2023/07/29 00:22:52;;;;;;;9.27;4.57;;;22.50;90.90;;;;;;4944748;29;20139;-79
2023/07/29 00:25:20;;;;;;;10.55;4.82;;;22.50;91.10;;;;;;4924510;28;20477;-80
2023/07/29 00:27:48;;;;;;;10.80;5.82;;;22.50;91.40;;;;;;4952903;28;20108;-79
2023/07/29 00:30:15;;;;;;;10.90;5.30;;;22.40;91.30;;;;;;4955451;28;20055;-79
2023/07/29 00:32:42;;;;;;;9.57;5.38;;;22.50;91.10;;;;;;4939153;29;20051;-80
2023/07/29 00:35:10;;;;;;;9.32;5.22;;;22.50;91.30;;;;;;4939257;28;20070;-78
2023/07/29 00:37:38;;;;;;;8.70;5.45;;;22.50;91.40;;;;;;4961466;28;20048;-78
2023/07/29 00:40:14;;;;;;;9.98;5.95;;;22.40;91.60;;;;;;4952219;28;20102;-78
2023/07/29 00:42:42;;;;;;;11.75;6.57;;;22.40;91.60;;;;;;4954584;29;20447;-78
2023/07/29 00:45:10;;;;;;;10.77;5.78;;;22.30;91.70;;;;;;4938423;28;20451;-81
2023/07/29 00:47:39;;;;;;;11.05;5.65;;;22.10;91.90;;;;;;4955674;28;20039;-82
2023/07/29 00:50:10;;;;;;;9.60;5.80;;;22.40;91.80;;;;;;4918702;28;20121;-80
2023/07/29 00:52:39;;;;;;;13.27;5.60;;;22.40;91.50;;;;;;4953746;28;20077;-80
2023/07/29 00:55:08;;;;;;;10.73;6.20;;;22.50;91.70;;;;;;4931338;29;20070;-79
2023/07/29 00:57:35;;;;;;;8.65;5.40;;;22.40;91.70;;;;;;4956704;29;20391;-81
2023/07/29 01:00:04;;;;;;;15.07;5.53;;;22.30;91.70;;;;;;4958909;28;20059;-79
2023/07/29 01:02:33;;;;;;;10.85;6.10;;;22.30;91.80;;;;;;4927014;28;20051;-78
2023/07/29 01:05:01;;;;;;;10.60;5.85;;;22.30;91.60;;;;;;4970128;28;20149;-79
2023/07/29 01:08:09;;;;;;;9.05;5.40;;;22.30;91.50;;;;;;4935625;29;20044;-77
2023/07/29 01:11:15;;;;;;;13.45;6.57;;;22.30;91.60;;;;;;4947764;28;20127;-78
2023/07/29 01:13:50;;;;;;;15.18;5.57;;;22.00;92.30;;;;;;4908269;29;20080;-78
2023/07/29 01:16:34;;;;;;;11.88;5.25;;;21.90;92.80;;;;;;4906422;29;20052;-79
2023/07/29 01:19:07;;;;;;;11.20;6.00;;;22.00;92.80;;;;;;4940680;29;20618;-80
2023/07/29 01:21:36;;;;;;;10.48;5.60;;;22.20;92.90;;;;;;4955695;28;20403;-80
2023/07/29 01:24:05;;;;;;;10.25;6.25;;;22.20;93.30;;;;;;4939713;28;20106;-78
2023/07/29 01:26:32;;;;;;;13.57;7.15;;;22.10;93.40;;;;;;4955671;28;20406;-77
2023/07/29 01:29:01;;;;;;;13.77;7.47;;;22.10;93.80;;;;;;4968799;28;20057;-79
2023/07/29 01:31:38;;;;;;;13.68;7.70;;;22.00;94.00;;;;;;4938169;28;20439;-78
2023/07/29 01:34:41;;;;;;;16.60;6.68;;;22.00;93.80;;;;;;4966035;28;20073;-79
2023/07/29 01:37:13;;;;;;;14.63;6.95;;;22.10;93.90;;;;;;4948758;28;20058;-79
2023/07/29 01:39:44;;;;;;;10.77;6.68;;;22.10;94.00;;;;;;4940087;28;20047;-79
2023/07/29 01:42:11;;;;;;;9.77;6.15;;;22.10;93.90;;;;;;4966788;28;20109;-80
2023/07/29 01:44:42;;;;;;;13.43;6.28;;;22.20;93.90;;;;;;4957820;28;20118;-80
2023/07/29 01:47:11;;;;;;;13.93;6.55;;;22.20;93.90;;;;;;4938412;29;20062;-78
2023/07/29 01:49:38;;;;;;;12.77;6.63;;;22.30;93.90;;;;;;4938003;29;20083;-76
2023/07/29 01:52:06;;;;;;;12.73;6.43;;;22.20;93.90;;;;;;4958165;28;20113;-76
2023/07/29 01:54:33;;;;;;;15.20;7.07;;;21.90;94.20;;;;;;4963608;28;20151;-78
2023/07/29 01:57:00;;;;;;;13.48;6.22;;;21.80;94.80;;;;;;4941367;28;20058;-77
2023/07/29 01:59:27;;;;;;;13.70;6.80;;;22.00;94.80;;;;;;4956896;28;20078;-79
2023/07/29 02:01:55;;;;;;;10.98;5.40;;;21.90;94.90;;;;;;4959888;28;20086;-81
2023/07/29 02:04:22;;;;;;;11.02;6.25;;;21.80;95.30;;;;;;4945816;28;20043;-78
2023/07/29 02:06:49;;;;;;;11.77;6.63;;;21.80;95.50;;;;;;4924968;29;20055;-78
2023/07/29 02:09:17;;;;;;;13.32;7.05;;;21.80;95.50;;;;;;4939766;28;20055;-79
2023/07/29 02:11:44;;;;;;;12.43;6.90;;;21.90;95.60;;;;;;4930856;29;20055;-80
2023/07/29 02:14:11;;;;;;;14.02;6.57;;;21.80;95.80;;;;;;4947065;28;20043;-80
2023/07/29 02:16:39;;;;;;;11.38;6.72;;;21.80;96.10;;;;;;4929713;29;20063;-78
2023/07/29 02:19:07;;;;;;;14.98;7.38;;;21.70;96.20;;;;;;4964590;28;20047;-79
2023/07/29 02:21:34;;;;;;;12.77;6.55;;;21.60;96.50;;;;;;4953803;28;20468;-79
2023/07/29 02:24:01;;;;;;;13.13;6.63;;;21.50;96.80;;;;;;4937289;28;20098;-78
2023/07/29 02:26:29;;;;;;;12.63;6.72;;;21.50;97.00;;;;;;4920428;29;20047;-78
2023/07/29 02:28:56;;;;;;;12.18;6.57;;;21.50;97.10;;;;;;4947933;28;20054;-78
2023/07/29 02:31:25;;;;;;;20.05;8.48;;;21.20;97.40;;;;;;4936048;29;20134;-78
2023/07/29 02:33:52;;;;;;;15.00;8.73;;;21.30;97.70;;;;;;4926821;29;20056;-79
2023/07/29 02:36:20;;;;;;;16.80;9.32;;;21.40;97.90;;;;;;4920574;29;20055;-79
2023/07/29 02:38:47;;;;;;;26.08;9.55;;;21.30;98.00;;;;;;4936216;29;20122;-80
2023/07/29 02:41:16;;;;;;;21.65;10.55;;;21.30;97.90;;;;;;4964042;28;20407;-77
2023/07/29 02:43:48;;;;;;;19.80;10.10;;;21.30;97.90;;;;;;4953149;28;20126;-77
2023/07/29 02:46:15;;;;;;;16.42;8.32;;;21.30;98.00;;;;;;4956238;28;20051;-78
2023/07/29 02:48:44;;;;;;;15.25;7.85;;;21.20;98.20;;;;;;4969537;28;20050;-77
2023/07/29 02:51:11;;;;;;;11.60;6.82;;;21.20;98.20;;;;;;4927393;29;20110;-77
2023/07/29 02:53:38;;;;;;;12.23;7.03;;;21.30;98.20;;;;;;4949504;29;20051;-79
2023/07/29 02:56:09;;;;;;;16.10;7.47;;;21.10;98.40;;;;;;4964173;28;20130;-78
2023/07/29 02:58:37;;;;;;;13.82;6.82;;;20.90;98.70;;;;;;4939095;29;20059;-78
2023/07/29 03:01:05;;;;;;;14.05;7.53;;;20.60;99.50;;;;;;4941045;28;20050;-77
2023/07/29 03:03:33;;;;;;;12.98;7.10;;;20.60;99.80;;;;;;4959713;28;20078;-77
2023/07/29 03:06:03;;;;;;;14.50;7.03;;;20.80;99.80;;;;;;4942299;28;20063;-77
2023/07/29 03:08:30;;;;;;;17.27;7.07;;;20.50;99.90;;;;;;4930145;28;20478;-79
2023/07/29 03:10:58;;;;;;;14.57;6.47;;;20.70;99.90;;;;;;4962781;28;20526;-79
2023/07/29 03:13:25;;;;;;;15.05;6.75;;;20.90;99.90;;;;;;4942668;29;20135;-80
2023/07/29 03:15:53;;;;;;;13.27;6.53;;;20.90;99.90;;;;;;4927724;28;20487;-79
2023/07/29 03:18:20;;;;;;;10.90;6.80;;;20.80;99.90;;;;;;4942712;29;20392;-80
2023/07/29 03:20:49;;;;;;;10.55;6.20;;;20.90;99.90;;;;;;4929868;29;20070;-78
2023/07/29 03:23:16;;;;;;;10.60;5.65;;;21.00;99.80;;;;;;4963407;28;20055;-78
2023/07/29 03:25:44;;;;;;;13.07;6.25;;;20.80;99.90;;;;;;4927430;28;20062;-80
2023/07/29 03:28:12;;;;;;;9.50;5.80;;;20.90;99.90;;;;;;4950693;28;20089;-79
2023/07/29 03:30:39;;;;;;;13.65;6.32;;;21.20;99.70;;;;;;4956463;29;20082;-81
2023/07/29 03:33:07;;;;;;;11.88;6.43;;;21.10;99.60;;;;;;4961080;28;20056;-80
2023/07/29 03:35:34;;;;;;;10.40;6.32;;;20.90;99.90;;;;;;4946058;29;20115;-82
2023/07/29 03:38:01;;;;;;;12.18;6.50;;;20.80;99.90;;;;;;4963451;28;20051;-79
2023/07/29 03:40:29;;;;;;;10.07;6.40;;;20.70;99.90;;;;;;4944013;29;20087;-80
2023/07/29 03:42:56;;;;;;;10.82;6.63;;;20.80;99.90;;;;;;4943098;28;20455;-81
2023/07/29 03:45:23;;;;;;;13.52;6.80;;;20.80;99.90;;;;;;4960621;28;20122;-80
2023/07/29 03:47:51;;;;;;;15.20;6.20;;;20.60;99.90;;;;;;4959721;28;20452;-81
2023/07/29 03:50:18;;;;;;;14.80;6.80;;;20.60;99.90;;;;;;4942365;29;20063;-82
2023/07/29 03:52:45;;;;;;;13.85;7.22;;;20.50;99.90;;;;;;4955684;28;20067;-82
2023/07/29 03:55:13;;;;;;;11.60;6.70;;;20.60;99.90;;;;;;4965746;28;20135;-81
2023/07/29 03:57:40;;;;;;;12.02;5.63;;;20.80;99.90;;;;;;4942932;29;20495;-80
2023/07/29 04:00:11;;;;;;;8.52;5.88;;;21.00;99.90;;;;;;4936295;28;20133;-82
2023/07/29 04:02:38;;;;;;;9.25;5.28;;;21.00;99.90;;;;;;4939709;29;20439;-81
2023/07/29 04:05:08;;;;;;;9.10;4.70;;;21.00;99.50;;;;;;4956435;28;20052;-81
2023/07/29 04:07:35;;;;;;;10.38;5.78;;;21.00;99.80;;;;;;4930119;29;20052;-79
2023/07/29 04:10:04;;;;;;;9.23;5.50;;;21.00;99.90;;;;;;4938321;29;20214;-79
2023/07/29 04:12:31;;;;;;;8.75;5.15;;;20.80;99.90;;;;;;4930181;29;20107;-82
2023/07/29 04:15:00;;;;;;;9.25;4.82;;;21.00;99.90;;;;;;4954874;28;20051;-79
2023/07/29 04:17:30;;;;;;;11.98;5.05;;;21.00;99.90;;;;;;4909927;29;20154;-80
2023/07/29 04:19:57;;;;;;;9.63;5.90;;;20.40;99.90;;;;;;4936531;29;20111;-82
2023/07/29 04:22:24;;;;;;;11.80;6.15;;;20.30;99.90;;;;;;4921715;29;20064;-81
2023/07/29 04:24:52;;;;;;;13.80;6.53;;;20.50;99.90;;;;;;4957311;28;20468;-79
2023/07/29 04:27:19;;;;;;;16.48;7.47;;;20.70;99.90;;;;;;4935577;29;20154;-79
2023/07/29 04:29:46;;;;;;;12.98;6.93;;;20.70;99.90;;;;;;4955747;28;20242;-80
2023/07/29 04:32:13;;;;;;;13.20;7.65;;;20.90;99.90;;;;;;4967450;28;20466;-80
2023/07/29 04:34:41;;;;;;;18.05;7.75;;;21.00;99.90;;;;;;4956060;28;20043;-80
2023/07/29 04:37:08;;;;;;;18.20;7.95;;;21.00;99.90;;;;;;4939080;28;20119;-80
2023/07/29 04:39:35;;;;;;;16.73;7.32;;;21.00;99.90;;;;;;4939742;29;20055;-80
2023/07/29 04:42:02;;;;;;;14.65;8.85;;;20.90;99.90;;;;;;4956543;28;20051;-81
2023/07/29 04:44:30;;;;;;;13.23;7.57;;;20.80;99.90;;;;;;4956965;28;20047;-81
2023/07/29 04:46:57;;;;;;;11.20;7.68;;;20.90;99.90;;;;;;4941435;28;20083;-80
2023/07/29 04:49:24;;;;;;;13.27;6.32;;;21.00;99.90;;;;;;4955486;29;20122;-80
2023/07/29 04:51:52;;;;;;;10.73;6.38;;;20.90;99.90;;;;;;4955285;28;20066;-80
2023/07/29 04:54:20;;;;;;;8.77;5.78;;;20.70;99.90;;;;;;4957716;28;20138;-80
2023/07/29 04:56:49;;;;;;;9.05;5.97;;;20.70;99.90;;;;;;4955750;28;20067;-79
2023/07/29 04:59:16;;;;;;;10.88;6.05;;;20.90;99.90;;;;;;4930404;28;20051;-81
2023/07/29 05:01:44;;;;;;;8.68;5.70;;;21.00;99.90;;;;;;4945452;29;20058;-80
2023/07/29 05:04:12;;;;;;;12.23;5.90;;;21.10;99.90;;;;;;4962959;28;20104;-79
2023/07/29 05:06:39;;;;;;;9.10;6.13;;;21.10;99.90;;;;;;4961573;28;20058;-81
2023/07/29 05:09:17;;;;;;;11.90;6.03;;;21.10;99.90;;;;;;4946822;28;20075;-81
2023/07/29 05:11:45;;;;;;;8.55;5.80;;;21.00;99.90;;;;;;4947911;28;20087;-80
2023/07/29 05:14:17;;;;;;;10.32;6.22;;;21.10;99.90;;;;;;4946981;29;20054;-79
2023/07/29 05:16:45;;;;;;;9.48;5.65;;;21.00;99.90;;;;;;4954698;29;20044;-79
2023/07/29 05:19:12;;;;;;;12.52;6.70;;;21.10;99.90;;;;;;4961587;28;20047;-80
2023/07/29 05:21:40;;;;;;;11.50;6.35;;;21.30;99.90;;;;;;4934685;29;20054;-80
2023/07/29 05:24:07;;;;;;;14.10;7.78;;;21.30;99.90;;;;;;4920151;29;20062;-81
2023/07/29 05:26:34;;;;;;;12.23;6.80;;;21.30;99.80;;;;;;4921742;29;20079;-83
2023/07/29 05:29:03;;;;;;;10.95;6.03;;;21.20;99.90;;;;;;4937394;29;20130;-78
2023/07/29 05:31:31;;;;;;;14.77;6.40;;;21.30;99.90;;;;;;4954502;28;20047;-79
2023/07/29 05:33:59;;;;;;;9.32;6.03;;;21.60;99.90;;;;;;4937316;28;20079;-78
2023/07/29 05:36:26;;;;;;;15.15;6.43;;;21.50;99.90;;;;;;4955046;29;20051;-81
2023/07/29 05:38:54;;;;;;;11.18;6.07;;;21.50;99.90;;;;;;4950559;28;20054;-81
2023/07/29 05:41:21;;;;;;;9.15;5.72;;;21.30;99.90;;;;;;4931312;29;20099;-82
2023/07/29 05:43:50;;;;;;;10.15;5.80;;;21.30;99.90;;;;;;4936719;29;20039;-85
2023/07/29 05:46:19;;;;;;;11.20;6.45;;;21.80;99.80;;;;;;4960157;29;20111;-81
2023/07/29 05:48:46;;;;;;;12.88;6.75;;;22.00;99.20;;;;;;4931814;29;20044;-81
2023/07/29 05:51:13;;;;;;;13.63;6.55;;;21.90;99.30;;;;;;4940051;29;20090;-81
2023/07/29 05:53:41;;;;;;;13.70;6.35;;;21.90;99.40;;;;;;4929952;28;20055;-82
2023/07/29 05:56:10;;;;;;;9.25;5.57;;;22.00;99.20;;;;;;4936999;29;20055;-82
2023/07/29 05:58:37;;;;;;;11.45;6.40;;;21.90;99.20;;;;;;4951343;28;20070;-86
2023/07/29 06:01:06;;;;;;;11.90;6.35;;;21.90;99.40;;;;;;4921937;29;20059;-80
2023/07/29 06:03:33;;;;;;;13.93;6.82;;;21.90;99.30;;;;;;4924833;29;20070;-81
2023/07/29 06:06:01;;;;;;;11.35;6.43;;;22.20;99.00;;;;;;4938206;29;20047;-79
2023/07/29 06:08:29;;;;;;;11.40;6.15;;;22.10;99.10;;;;;;4933730;29;20047;-80
2023/07/29 06:10:56;;;;;;;11.68;5.85;;;22.10;99.20;;;;;;4919402;29;20496;-80
2023/07/29 06:13:23;;;;;;;9.90;6.07;;;22.20;99.10;;;;;;4952134;28;20070;-80
2023/07/29 06:15:51;;;;;;;11.95;6.00;;;22.30;99.00;;;;;;4954691;29;20074;-79
2023/07/29 06:18:18;;;;;;;12.07;6.03;;;22.50;98.80;;;;;;4938866;29;20051;-79
2023/07/29 06:20:45;;;;;;;10.85;6.63;;;22.60;98.40;;;;;;4939417;29;20063;-79
2023/07/29 06:23:13;;;;;;;15.18;6.35;;;22.50;98.10;;;;;;4921157;29;20509;-81
2023/07/29 06:25:40;;;;;;;11.88;6.32;;;22.40;98.40;;;;;;4937895;29;20051;-81
2023/07/29 06:28:08;;;;;;;12.10;7.00;;;22.30;98.20;;;;;;4937707;29;20067;-81
2023/07/29 06:30:36;;;;;;;14.80;7.25;;;22.30;98.30;;;;;;4918051;29;20083;-79
2023/07/29 06:33:03;;;;;;;15.02;7.15;;;22.40;98.50;;;;;;4940848;29;20086;-82
2023/07/29 06:35:31;;;;;;;12.85;6.38;;;22.60;98.20;;;;;;4959700;28;20464;-81
2023/07/29 06:37:59;;;;;;;12.30;6.35;;;22.80;97.90;;;;;;4925681;29;20061;-81
2023/07/29 06:40:26;;;;;;;12.45;6.43;;;22.90;97.60;;;;;;4938930;28;20130;-80
2023/07/29 06:42:55;;;;;;;11.63;6.43;;;22.90;97.70;;;;;;4908682;29;20056;-80
2023/07/29 06:45:22;;;;;;;11.60;5.95;;;23.00;97.70;;;;;;4949916;29;20467;-80
2023/07/29 06:47:49;;;;;;;13.93;7.07;;;23.00;97.30;;;;;;4925381;29;20079;-82
2023/07/29 06:50:17;;;;;;;13.80;6.38;;;23.20;97.10;;;;;;4940648;29;20538;-82
2023/07/29 06:52:45;;;;;;;10.60;6.43;;;23.20;96.90;;;;;;4932365;28;20061;-80
2023/07/29 06:55:12;;;;;;;11.63;6.63;;;23.40;96.70;;;;;;4927714;28;20067;-80
2023/07/29 06:57:42;;;;;;;15.18;6.30;;;23.40;96.50;;;;;;4940477;29;20058;-79
2023/07/29 07:00:11;;;;;;;13.65;7.20;;;23.30;96.60;;;;;;4951070;28;20086;-80
2023/07/29 07:02:39;;;;;;;12.73;6.72;;;23.30;96.50;;;;;;4965005;28;20509;-81
2023/07/29 07:05:06;;;;;;;11.18;6.20;;;23.40;96.60;;;;;;4921199;29;20404;-80
2023/07/29 07:07:34;;;;;;;12.43;7.10;;;23.40;96.30;;;;;;4938266;29;20055;-82
2023/07/29 07:10:01;;;;;;;12.57;6.47;;;23.40;96.30;;;;;;4938211;28;20043;-81
2023/07/29 07:12:35;;;;;;;13.52;7.22;;;23.50;96.20;;;;;;4957430;29;20055;-81
2023/07/29 07:15:02;;;;;;;15.52;6.88;;;23.60;96.30;;;;;;4924178;29;20078;-79
2023/07/29 07:17:30;;;;;;;11.38;6.47;;;23.80;95.70;;;;;;4936296;29;20055;-79
2023/07/29 07:19:57;;;;;;;14.43;7.22;;;24.00;95.20;;;;;;4931890;29;20071;-79
2023/07/29 07:22:25;;;;;;;17.45;7.10;;;24.00;95.10;;;;;;4949512;29;20138;-79
2023/07/29 07:24:52;;;;;;;11.60;6.57;;;23.90;95.10;;;;;;4955554;29;20047;-81
2023/07/29 07:27:20;;;;;;;11.63;6.35;;;23.80;95.30;;;;;;4955635;29;20439;-80
2023/07/29 07:29:48;;;;;;;10.00;6.63;;;23.80;95.20;;;;;;4905327;29;20051;-79
2023/07/29 07:32:16;;;;;;;11.40;6.03;;;23.90;95.10;;;;;;4949628;28;20051;-80
2023/07/29 07:34:51;;;;;;;;;;;24.00;95.10;;;;;;4950121;28;20826;-79
2023/07/29 07:37:19;;;;;;;12.00;6.32;;;24.00;94.80;;;;;;4940313;28;19961;-79
2023/07/29 07:39:47;;;;;;;13.15;6.72;;;24.00;94.90;;;;;;4958243;29;20079;-79
2023/07/29 07:42:14;;;;;;;11.82;5.63;;;24.00;94.60;;;;;;4941128;29;20138;-80
2023/07/29 07:44:42;;;;;;;13.23;6.10;;;24.10;94.40;;;;;;4961500;29;20045;-80
2023/07/29 07:47:09;;;;;;;10.13;5.75;;;24.20;94.60;;;;;;4928766;29;20110;-80
2023/07/29 07:49:36;;;;;;;9.95;5.63;;;24.40;94.50;;;;;;4959357;28;20051;-82
2023/07/29 07:52:04;;;;;;;10.95;6.03;;;24.40;93.50;;;;;;4960498;28;20085;-80
2023/07/29 07:54:31;;;;;;;10.38;6.00;;;24.60;93.30;;;;;;4968586;28;20089;-79
2023/07/29 07:56:58;;;;;;;11.32;6.03;;;24.60;93.30;;;;;;4957038;28;20141;-78
2023/07/29 07:59:27;;;;;;;11.25;5.72;;;24.80;92.90;;;;;;4957793;28;20451;-82
2023/07/29 08:01:55;;;;;;;8.23;4.85;;;24.80;93.00;;;;;;4923808;28;21390;-82
2023/07/29 08:04:22;;;;;;;9.68;5.78;;;24.90;92.50;;;;;;4924224;29;20054;-82
2023/07/29 08:06:50;;;;;;;12.23;5.97;;;25.00;92.20;;;;;;4940849;29;20044;-82
2023/07/29 08:09:18;;;;;;;10.25;5.18;;;25.00;92.50;;;;;;4958327;29;20059;-82
2023/07/29 08:11:45;;;;;;;12.32;5.88;;;25.10;92.00;;;;;;4958752;28;20110;-82
2023/07/29 08:14:13;;;;;;;9.65;5.45;;;25.10;92.00;;;;;;4952172;28;20086;-80
2023/07/29 08:16:40;;;;;;;11.18;5.45;;;25.10;91.90;;;;;;4959666;28;20071;-79
2023/07/29 08:19:09;;;;;;;9.07;5.30;;;25.20;91.90;;;;;;4925039;29;20506;-81
2023/07/29 08:21:37;;;;;;;9.20;5.75;;;25.30;91.60;;;;;;4956638;29;20078;-82
2023/07/29 08:24:06;;;;;;;9.75;5.13;;;25.50;91.30;;;;;;4957414;29;20059;-82
2023/07/29 08:26:33;;;;;;;10.77;5.40;;;25.70;90.80;;;;;;4935978;29;20460;-79
2023/07/29 08:29:02;;;;;;;13.00;5.70;;;25.60;90.80;;;;;;4953051;29;20103;-80
2023/07/29 08:31:33;;;;;;;8.40;5.15;;;25.60;90.70;;;;;;4959888;28;20070;-81
2023/07/29 08:34:01;;;;;;;11.60;5.22;;;25.70;90.40;;;;;;4960578;28;20061;-79
2023/07/29 08:36:33;;;;;;;8.95;5.00;;;25.80;90.30;;;;;;4937170;29;20047;-82
2023/07/29 08:39:01;;;;;;;12.07;5.63;;;26.00;90.00;;;;;;4959169;28;20055;-80
2023/07/29 08:41:53;;;;;;;38.53;26.20;;;26.10;89.70;;;;;;4921053;29;20059;-81
2023/07/29 08:44:24;;;;;;;43.25;29.83;;;26.20;89.00;;;;;;4940876;29;20059;-79
2023/07/29 08:46:53;;;;;;;16.07;10.07;;;26.20;88.70;;;;;;4940817;28;20111;-82
2023/07/29 08:49:23;;;;;;;13.43;8.77;;;26.40;87.40;;;;;;4961936;29;20278;-82
2023/07/29 08:51:53;;;;;;;26.75;17.50;;;26.40;87.10;;;;;;4926357;28;20459;-81
2023/07/29 08:54:21;;;;;;;26.27;17.63;;;26.50;86.90;;;;;;4969823;28;20061;-80
2023/07/29 08:56:49;;;;;;;19.40;10.70;;;26.60;85.90;;;;;;4964170;28;20318;-81
2023/07/29 08:59:17;;;;;;;11.30;6.10;;;26.80;86.00;;;;;;4940904;28;20080;-80
2023/07/29 09:01:44;;;;;;;11.10;5.82;;;26.60;84.10;;;;;;4966723;28;20595;-82
2023/07/29 09:04:12;;;;;;;6.22;4.30;;;26.50;84.60;;;;;;4958636;28;20043;-81
2023/07/29 09:06:42;;;;;;;12.23;4.50;;;26.70;84.30;;;;;;4952035;28;20349;-81
2023/07/29 09:09:09;;;;;;;13.57;4.82;;;26.70;84.30;;;;;;4925510;29;20098;-81
2023/07/29 09:11:37;;;;;;;9.48;4.70;;;26.90;84.00;;;;;;4921673;29;20492;-83
2023/07/29 09:14:05;;;;;;;10.10;6.78;;;27.10;83.20;;;;;;4941284;29;20071;-81
2023/07/29 09:16:34;;;;;;;11.25;6.47;;;27.30;82.10;;;;;;4943936;29;20053;-84
2023/07/29 09:19:08;;;;;;;28.08;6.60;;;27.60;82.50;;;;;;4960003;29;20051;-78
2023/07/29 09:21:39;;;;;;;9.10;4.65;;;27.60;81.30;;;;;;4940922;29;20050;-81
2023/07/29 09:24:07;;;;;;;23.00;6.00;;;27.50;81.10;;;;;;4957168;29;20058;-81
2023/07/29 09:26:35;;;;;;;7.78;4.20;;;27.60;80.50;;;;;;4941072;29;20142;-82
2023/07/29 09:29:03;;;;;;;12.48;4.65;;;28.00;78.80;;;;;;4956868;28;20079;-80
2023/07/29 09:31:39;;;;;;;10.15;4.88;;;28.20;78.10;;;;;;4940281;28;20559;-86
2023/07/29 09:34:08;;;;;;;8.35;4.43;;;28.20;77.70;;;;;;4957592;29;20055;-80
2023/07/29 09:36:35;;;;;;;12.60;4.38;;;28.30;76.90;;;;;;4923470;29;20102;-79
2023/07/29 09:39:10;;;;;;;13.25;4.07;;;28.50;78.90;;;;;;4955132;28;20492;-79
2023/07/29 09:41:37;;;;;;;7.70;4.47;;;28.30;78.40;;;;;;4955042;28;20050;-78
2023/07/29 09:44:05;;;;;;;50.35;32.50;;;28.40;74.20;;;;;;4949105;28;20132;-75
2023/07/29 09:46:37;;;;;;;38.78;29.15;;;28.60;77.50;;;;;;4961669;28;20581;-76
2023/07/29 09:49:07;;;;;;;12.18;8.23;;;28.40;76.30;;;;;;4939528;29;20055;-76
2023/07/29 09:51:39;;;;;;;29.98;21.30;;;28.70;74.40;;;;;;4963003;28;20395;-77
2023/07/29 09:54:09;;;;;;;21.13;14.70;;;28.90;73.40;;;;;;4931945;28;20061;-77
2023/07/29 09:56:41;;;;;;;66.40;50.17;;;28.90;71.90;;;;;;4960986;28;20048;-79
2023/07/29 09:59:09;;;;;;;13.13;9.13;;;29.00;71.20;;;;;;4955789;28;20468;-82
2023/07/29 10:01:37;;;;;;;10.98;7.57;;;29.10;71.30;;;;;;4937129;29;20047;-85
2023/07/29 10:04:06;;;;;;;13.77;7.07;;;29.30;71.40;;;;;;4958297;28;20071;-79
2023/07/29 10:06:38;;;;;;;14.57;9.40;;;29.40;71.80;;;;;;4929927;29;20043;-80
2023/07/29 10:09:06;;;;;;;12.25;6.90;;;29.10;72.70;;;;;;4956930;28;20055;-77
2023/07/29 10:11:35;;;;;;;12.57;5.80;;;28.90;72.50;;;;;;4958114;28;20051;-82
2023/07/29 10:14:03;;;;;;;10.93;6.00;;;29.00;73.00;;;;;;4967943;28;20114;-80
2023/07/29 10:16:40;;;;;;;7.45;4.50;;;28.80;72.40;;;;;;4962098;28;20759;-80
2023/07/29 10:19:09;;;;;;;7.65;4.75;;;29.00;72.90;;;;;;4959736;28;20058;-82
2023/07/29 10:21:44;;;;;;;8.15;4.18;;;29.00;72.20;;;;;;4959229;28;20578;-78
2023/07/29 10:24:21;;;;;;;6.85;3.90;;;29.20;71.10;;;;;;4929445;28;20055;-78
2023/07/29 10:26:50;;;;;;;8.65;4.22;;;29.20;69.60;;;;;;4922384;29;20047;-79
2023/07/29 10:29:22;;;;;;;8.57;4.03;;;29.40;70.00;;;;;;4947863;28;20054;-79
2023/07/29 10:31:55;;;;;;;6.88;3.53;;;29.70;71.70;;;;;;4963704;28;20051;-83
2023/07/29 10:34:24;;;;;;;7.78;3.47;;;29.70;70.60;;;;;;4967383;28;20506;-80
2023/07/29 10:36:53;;;;;;;7.15;3.30;;;29.60;68.90;;;;;;4956703;28;20051;-78
2023/07/29 10:39:20;;;;;;;5.97;3.53;;;29.60;67.70;;;;;;4958887;28;20145;-78
2023/07/29 10:41:56;;;;;;;6.95;3.38;;;29.70;68.10;;;;;;4969518;28;20137;-77
2023/07/29 10:44:51;;;;;;;9.50;3.28;;;29.90;69.10;;;;;;4954627;28;20043;-81
2023/07/29 10:47:20;;;;;;;9.05;3.42;;;29.90;67.90;;;;;;4955632;28;20570;-83
2023/07/29 10:49:58;;;;;;;7.15;3.42;;;30.10;67.20;;;;;;4957896;28;20399;-78
2023/07/29 10:52:51;;;;;;;10.15;3.83;;;30.10;66.30;;;;;;4958576;28;20080;-77
2023/07/29 10:55:27;;;;;;;5.93;3.72;;;30.20;66.80;;;;;;4953274;28;20416;-76
2023/07/29 10:58:18;;;;;;;5.72;3.33;;;30.30;66.40;;;;;;4957509;28;20054;-76
2023/07/29 11:00:46;;;;;;;6.43;3.42;;;30.40;66.80;;;;;;4956967;28;20118;-76
2023/07/29 11:03:15;;;;;;;6.20;3.85;;;30.60;66.60;;;;;;4967435;28;20483;-74
2023/07/29 11:05:44;;;;;;;7.68;4.13;;;30.70;65.80;;;;;;4967184;28;20079;-78
2023/07/29 11:08:29;;;;;;;6.72;3.47;;;30.70;65.50;;;;;;4943253;28;20043;-79
2023/07/29 11:11:08;;;;;;;6.55;3.75;;;30.50;66.30;;;;;;4964217;28;20050;-76
2023/07/29 11:13:37;;;;;;;6.68;3.35;;;30.50;66.70;;;;;;4945509;29;20042;-81
2023/07/29 11:16:05;;;;;;;5.88;3.60;;;30.70;66.20;;;;;;4974152;28;20058;-78
2023/07/29 11:18:36;;;;;;;6.47;3.92;;;30.80;66.30;;;;;;4944982;29;20537;-79
2023/07/29 11:21:04;;;;;;;7.03;3.10;;;30.80;64.90;;;;;;4945598;28;20830;-78
2023/07/29 11:23:36;;;;;;;6.20;3.08;;;30.80;64.90;;;;;;4963316;28;20451;-87
2023/07/29 11:26:12;;;;;;;5.93;3.30;;;30.80;65.40;;;;;;4947441;29;20058;-78
2023/07/29 11:28:40;;;;;;;6.50;3.80;;;30.80;66.80;;;;;;4953808;28;20454;-76
2023/07/29 11:31:08;;;;;;;8.20;3.63;;;31.00;66.50;;;;;;4931990;29;20048;-76
2023/07/29 11:33:39;;;;;;;4.88;2.78;;;31.00;66.10;;;;;;4940689;29;20542;-83
2023/07/29 11:36:18;;;;;;;5.72;3.40;;;31.20;64.50;;;;;;4939808;29;20051;-81
2023/07/29 11:38:45;;;;;;;4.60;3.00;;;30.90;63.70;;;;;;4950622;29;20102;-76
2023/07/29 11:41:19;;;;;;;6.80;3.50;;;31.00;63.60;;;;;;4963423;28;20395;-79
2023/07/29 11:43:53;;;;;;;8.10;3.53;;;31.20;63.20;;;;;;4946297;28;20134;-87
2023/07/29 11:46:22;;;;;;;6.78;3.10;;;31.30;64.50;;;;;;4949643;28;20046;-84
2023/07/29 11:48:53;;;;;;;19.98;14.57;;;30.90;64.90;;;;;;4930101;29;20059;-80
2023/07/29 11:51:21;;;;;;;56.30;45.85;;;30.70;63.50;;;;;;4943288;29;20055;-81
2023/07/29 11:53:49;;;;;;;166.40;122.78;;;31.30;62.70;;;;;;4960973;28;20122;-81
2023/07/29 11:56:17;;;;;;;49.60;38.28;;;31.10;63.80;;;;;;4974877;28;20149;-83
2023/07/29 11:58:49;;;;;;;20.25;15.50;;;30.80;64.60;;;;;;4930287;29;20098;-77
2023/07/29 12:01:16;;;;;;;10.75;7.35;;;30.80;64.40;;;;;;4969557;28;20055;-79
2023/07/29 12:03:44;;;;;;;6.10;3.92;;;31.00;63.70;;;;;;4965475;28;20082;-81
2023/07/29 12:06:12;;;;;;;7.80;3.50;;;31.20;63.30;;;;;;4962314;28;20098;-81
2023/07/29 12:08:39;;;;;;;7.20;2.80;;;31.30;61.10;;;;;;4940768;29;20142;-79
2023/07/29 12:11:08;;;;;;;5.63;3.30;;;31.50;60.70;;;;;;4927727;29;20111;-80
2023/07/29 12:13:38;;;;;;;5.60;3.35;;;31.50;61.70;;;;;;4937596;29;20055;-79
2023/07/29 12:16:06;;;;;;;7.13;3.28;;;31.40;62.10;;;;;;4967089;28;20133;-79
2023/07/29 12:18:36;;;;;;;5.60;2.83;;;31.20;63.50;;;;;;4942619;29;20050;-74
2023/07/29 12:21:03;;;;;;;13.27;11.23;;;31.60;61.30;;;;;;4938534;28;20051;-79
2023/07/29 12:23:31;;;;;;;8.80;5.75;;;31.70;60.30;;;;;;4937347;29;20119;-76
2023/07/29 12:25:59;;;;;;;7.72;5.47;;;31.80;61.30;;;;;;4926758;29;20059;-82
2023/07/29 12:28:27;;;;;;;6.78;4.55;;;31.50;62.60;;;;;;4966523;28;20047;-80
2023/07/29 12:30:55;;;;;;;8.60;5.65;;;31.50;62.50;;;;;;4969481;28;20047;-78
2023/07/29 12:33:55;;;;;;;8.30;5.97;;;31.30;62.00;;;;;;4957604;28;20047;-78
2023/07/29 12:36:40;;;;;;;39.63;32.45;;;31.30;62.40;;;;;;4965436;28;20129;-78
2023/07/29 12:39:25;;;;;;;32.17;26.45;;;31.30;60.90;;;;;;4928594;28;20185;-77
2023/07/29 12:41:58;;;;;;;31.73;23.33;;;31.40;60.60;;;;;;4956516;28;20056;-77
2023/07/29 12:44:29;;;;;;;23.15;17.25;;;31.70;59.80;;;;;;4941133;29;20047;-80
2023/07/29 12:46:57;;;;;;;27.58;21.88;;;31.80;60.60;;;;;;4954237;28;20082;-77
2023/07/29 12:49:28;;;;;;;25.73;19.60;;;31.70;60.10;;;;;;4965247;28;20055;-77